To NAV CANADA Home Page Login to a new session Search on AWWS site Disclaimer Vers la page française équivalente Tips FAQ What's new on the site To the Forecasts and Observations / NOTAM section To "File a Flight Plan" website Publications and other links Update of the User's profile FIC Telephone Numbers My Weather Data Folder Route Weather Data Regional Weather Data Local Weather Data To the Forecasts and Observations / NOTAM section
Request Generated 03/19/2019 at 23:04:02 UTC . Weather information available at that time is displayed.

METAR/TAF

GOOSE BAY/NL    

METAR CYYR 192300Z 22005KT 15SM FEW240 M10/M21 A3009 RMK CI1 SLP195=
METAR CYYR 192200Z 24009KT 15SM FEW170 FEW250 M09/M20 A3009 RMK AC1CI1 SLP194=
METAR CYYR 192100Z 26012KT 15SM FEW250 M08/M19 A3008 RMK CI1 SLP192=

TAF CYYR 191730Z 1918/2018 29012KT P6SM FEW060 FEW250
FM200600 23006KT P6SM SCT170
FM201500 25018G28KT P6SM BKN030 TEMPO 2015/2018 6SM -SHSN
RMK NXT FCST BY 200000Z=
Your time UTC time
Weather data provided by Environment Canada and NAV CANADA